Time;durP1;ratioP1;P1;durP2;ratioP2;P2;SDS_P1;SDS_P2;PMS_P1;PMS_P2;Temp;Humidity;BMP_temperature;BMP_pressure;BME280_temperature;BME280_humidity;BME280_pressure;Samples;Min_cycle;Max_cycle;Signal;HPM_P1;HPM_P2
2023/03/05 10:11:42;;;;;;;25.67;21.00;;;7.20;99.90;;;;;;5102801;27;20616;-75
2023/03/05 10:14:14;;;;;;;24.50;21.53;;;8.30;99.90;;;;;;5103235;28;20915;-75
2023/03/05 10:16:59;;;;;;;26.23;20.73;;;8.40;99.90;;;;;;5103424;28;20464;-75
2023/03/05 10:19:50;;;;;;;23.13;20.50;;;8.70;99.90;;;;;;5103288;28;20437;-75
2023/03/05 10:22:20;;;;;;;22.20;19.50;;;8.70;99.90;;;;;;5090435;28;20437;-75
2023/03/05 10:25:01;;;;;;;22.47;20.23;;;8.70;99.90;;;;;;5103243;28;20819;-75
2023/03/05 10:27:40;;;;;;;22.07;19.73;;;8.80;99.90;;;;;;5103382;28;20456;-75
2023/03/05 10:30:23;;;;;;;21.00;18.90;;;8.80;99.90;;;;;;5102990;28;20542;-76
2023/03/05 10:32:59;;;;;;;23.00;20.60;;;8.60;99.90;;;;;;5103262;28;20449;-75
2023/03/05 10:35:47;;;;;;;27.07;22.43;;;8.50;99.90;;;;;;5103363;28;20449;-75
2023/03/05 10:38:43;;;;;;;22.73;18.80;;;8.10;99.90;;;;;;5102958;28;20473;-75
2023/03/05 10:41:16;;;;;;;24.17;21.47;;;8.00;99.90;;;;;;5103309;28;20454;-75
2023/03/05 10:43:52;;;;;;;26.10;22.17;;;8.00;99.90;;;;;;5102867;28;20472;-75
2023/03/05 10:46:22;;;;;;;30.30;23.47;;;8.00;99.90;;;;;;5102873;28;20944;-75
2023/03/05 10:48:52;;;;;;;23.90;21.50;;;8.20;99.90;;;;;;5102778;28;20688;-75
2023/03/05 10:51:28;;;;;;;28.57;22.43;;;8.40;99.90;;;;;;5102692;28;20456;-75
2023/03/05 10:53:57;;;;;;;25.60;22.90;;;8.20;99.90;;;;;;5102946;28;20448;-76
2023/03/05 10:56:27;;;;;;;24.43;21.83;;;8.40;99.90;;;;;;5103169;28;20532;-76
2023/03/05 10:58:55;;;;;;;23.43;19.20;;;8.90;99.90;;;;;;5102850;28;20540;-74
2023/03/05 11:01:24;;;;;;;26.70;19.47;;;9.00;99.90;;;;;;5102561;28;20482;-75
2023/03/05 11:03:56;;;;;;;22.77;20.50;;;8.90;99.90;;;;;;5102630;28;20532;-76
2023/03/05 11:06:35;;;;;;;23.37;21.03;;;8.90;99.90;;;;;;5102750;28;20954;-75
2023/03/05 11:09:17;;;;;;;21.70;19.40;;;8.90;99.90;;;;;;5102078;28;20529;-73
2023/03/05 11:11:45;;;;;;;22.90;20.33;;;8.80;99.90;;;;;;5093286;28;20446;-73
2023/03/05 11:14:29;;;;;;;21.03;18.70;;;8.40;99.90;;;;;;5089183;28;20438;-74
2023/03/05 11:16:57;;;;;;;31.50;21.93;;;8.40;99.90;;;;;;5089207;28;20481;-75
2023/03/05 11:19:28;;;;;;;26.13;20.60;;;8.10;99.90;;;;;;5089048;28;20462;-76
2023/03/05 11:22:07;;;;;;;25.67;20.63;;;7.90;99.90;;;;;;5089027;28;20972;-74
2023/03/05 11:24:33;;;;;;;25.10;20.57;;;7.80;99.90;;;;;;5088769;28;20438;-75
2023/03/05 11:27:00;;;;;;;26.80;20.60;;;7.70;99.90;;;;;;5088632;28;20537;-74
2023/03/05 11:29:31;;;;;;;29.20;22.13;;;7.50;99.90;;;;;;5088732;28;20474;-74
2023/03/05 11:32:15;;;;;;;24.33;18.90;;;7.30;99.90;;;;;;5088932;28;20965;-74
2023/03/05 11:34:42;;;;;;;26.50;20.00;;;7.30;99.90;;;;;;5088951;28;20566;-75
2023/03/05 11:37:22;;;;;;;27.27;23.40;;;7.10;99.90;;;;;;5088866;28;20450;-75
2023/03/05 11:40:04;;;;;;;26.17;21.40;;;7.10;99.90;;;;;;5088582;28;20461;-75
2023/03/05 11:42:31;;;;;;;27.67;22.60;;;7.10;99.90;;;;;;5088653;28;20511;-75
2023/03/05 11:45:00;;;;;;;26.00;22.57;;;6.90;99.90;;;;;;5088615;28;20454;-75
2023/03/05 11:47:35;;;;;;;27.90;20.87;;;7.00;99.90;;;;;;5088616;28;20446;-75
2023/03/05 11:50:12;;;;;;;25.63;20.27;;;7.10;99.90;;;;;;5088535;28;20540;-76
2023/03/05 11:52:45;;;;;;;25.07;20.70;;;7.10;99.90;;;;;;5088532;28;20442;-74
2023/03/05 11:55:17;;;;;;;25.70;21.73;;;7.00;99.90;;;;;;5088784;28;20539;-75
2023/03/05 11:57:48;;;;;;;23.00;20.50;;;6.90;99.90;;;;;;5088527;28;20796;-75
2023/03/05 12:00:21;;;;;;;21.93;19.37;;;7.00;99.90;;;;;;5088464;28;20454;-76
2023/03/05 12:02:53;;;;;;;23.60;20.83;;;6.90;99.90;;;;;;5088247;28;20990;-76
2023/03/05 12:05:21;;;;;;;22.33;19.90;;;6.90;99.90;;;;;;5088522;28;20450;-76
2023/03/05 12:07:51;;;;;;;26.17;20.37;;;7.10;99.90;;;;;;5088046;28;20519;-76
2023/03/05 12:10:20;;;;;;;23.70;21.30;;;7.30;99.90;;;;;;5088170;28;20489;-74
2023/03/05 12:12:52;;;;;;;23.23;20.70;;;7.50;99.90;;;;;;5088294;28;20458;-75
2023/03/05 12:15:35;;;;;;;26.23;20.83;;;7.30;99.90;;;;;;5088552;28;20449;-74
2023/03/05 12:18:12;;;;;;;23.10;20.83;;;7.30;99.90;;;;;;5088468;28;20549;-75
2023/03/05 12:20:45;;;;;;;28.87;20.60;;;7.30;99.90;;;;;;5088577;28;20454;-75
2023/03/05 12:23:15;;;;;;;22.90;20.43;;;7.40;99.90;;;;;;5087175;28;20454;-76
2023/03/05 12:25:48;;;;;;;24.23;21.50;;;7.50;99.90;;;;;;5088466;28;20455;-75
2023/03/05 12:28:17;;;;;;;22.33;18.00;;;7.60;99.90;;;;;;5088136;28;20450;-74
2023/03/05 12:30:59;;;;;;;21.77;19.70;;;7.70;99.90;;;;;;5088265;28;20493;-75
2023/03/05 12:33:33;;;;;;;22.50;20.13;;;7.80;99.90;;;;;;5088237;28;20446;-75
2023/03/05 12:36:35;;;;;;;20.73;18.67;;;7.80;99.90;;;;;;5087958;28;20652;-73
2023/03/05 12:39:01;;;;;;;22.43;20.23;;;7.80;99.90;;;;;;5087889;28;20452;-75
2023/03/05 12:41:38;;;;;;;22.00;17.63;;;7.90;99.90;;;;;;5087799;28;20542;-75
2023/03/05 12:44:26;;;;;;;17.60;15.80;;;7.70;99.90;;;;;;5087713;28;20498;-75
2023/03/05 12:47:22;;;;;;;18.23;15.67;;;7.60;99.90;;;;;;5081358;28;20463;-75
2023/03/05 12:49:49;;;;;;;23.67;17.60;;;7.60;99.90;;;;;;5087495;28;20556;-75
2023/03/05 12:52:25;;;;;;;22.20;19.20;;;7.50;99.90;;;;;;5087900;28;20454;-75
2023/03/05 12:55:13;;;;;;;20.60;17.33;;;7.40;99.90;;;;;;5088258;28;20446;-74
2023/03/05 12:57:43;;;;;;;21.23;19.07;;;7.40;99.90;;;;;;5088179;28;20442;-74
2023/03/05 13:00:14;;;;;;;20.53;18.13;;;7.30;99.90;;;;;;5088060;28;20451;-74
2023/03/05 13:02:45;;;;;;;19.60;17.67;;;7.40;99.90;;;;;;5088049;28;20890;-74
2023/03/05 13:05:20;;;;;;;22.27;20.00;;;7.50;99.90;;;;;;5088450;28;20518;-74
2023/03/05 13:07:47;;;;;;;20.37;17.53;;;7.60;99.90;;;;;;5087661;28;20469;-75
2023/03/05 13:10:22;;;;;;;22.60;19.80;;;7.60;99.90;;;;;;5087573;28;20490;-74
2023/03/05 13:12:51;;;;;;;21.70;19.50;;;7.60;99.90;;;;;;5087219;28;20466;-74
2023/03/05 13:15:39;;;;;;;24.63;19.77;;;7.60;99.90;;;;;;5087524;28;20935;-74
2023/03/05 13:18:19;;;;;;;19.87;17.70;;;7.60;99.90;;;;;;5083900;27;20921;-75
2023/03/05 13:20:49;;;;;;;22.67;18.83;;;7.60;99.90;;;;;;5087481;28;20454;-74
2023/03/05 13:23:20;;;;;;;19.53;17.50;;;7.60;99.90;;;;;;5087577;28;20541;-75
2023/03/05 13:26:10;;;;;;;23.47;20.93;;;7.70;99.90;;;;;;5087567;27;21096;-76
2023/03/05 13:28:38;;;;;;;21.20;18.30;;;8.00;99.90;;;;;;5087677;28;20453;-74
2023/03/05 13:31:13;;;;;;;19.50;16.47;;;8.00;99.90;;;;;;5087271;28;20517;-74
2023/03/05 13:33:51;;;;;;;20.77;18.10;;;8.10;99.90;;;;;;5086818;28;20454;-75
2023/03/05 13:36:19;;;;;;;18.20;16.50;;;8.40;99.90;;;;;;5087356;28;20944;-73
2023/03/05 13:38:47;;;;;;;21.47;19.00;;;8.50;99.70;;;;;;5087183;28;20968;-76
2023/03/05 13:41:22;;;;;;;21.27;18.80;;;8.40;99.90;;;;;;5087359;28;20447;-76
2023/03/05 13:43:51;;;;;;;20.30;18.30;;;8.60;99.90;;;;;;5087498;28;20445;-74
2023/03/05 13:46:30;;;;;;;20.40;16.80;;;8.50;99.90;;;;;;5087349;28;20450;-76
2023/03/05 13:49:17;;;;;;;23.03;17.83;;;8.30;99.90;;;;;;5087439;28;20537;-75
2023/03/05 13:51:46;;;;;;;17.73;16.10;;;8.30;99.90;;;;;;5087162;28;20512;-73
2023/03/05 13:54:14;;;;;;;20.83;17.70;;;8.40;99.90;;;;;;5087368;28;20564;-75
2023/03/05 13:56:50;;;;;;;20.50;18.40;;;8.40;99.90;;;;;;5087385;28;20461;-76
2023/03/05 13:59:18;;;;;;;19.13;17.17;;;8.40;99.70;;;;;;5087019;28;20450;-75
2023/03/05 14:01:47;;;;;;;25.47;18.40;;;8.30;99.70;;;;;;5087145;28;20457;-76
2023/03/05 14:04:24;;;;;;;18.57;15.17;;;8.30;99.90;;;;;;5087089;28;20506;-74
2023/03/05 14:06:55;;;;;;;18.77;15.90;;;8.20;99.90;;;;;;5086880;28;20451;-75
2023/03/05 14:09:24;;;;;;;19.93;17.70;;;8.10;99.90;;;;;;5086913;28;20446;-75
2023/03/05 14:12:00;;;;;;;19.60;15.80;;;7.90;99.90;;;;;;5086836;28;20996;-75
2023/03/05 14:14:29;;;;;;;18.07;16.17;;;8.00;99.90;;;;;;5087061;28;20445;-75
2023/03/05 14:17:16;;;;;;;17.43;15.90;;;8.10;99.90;;;;;;5087266;28;20526;-75
2023/03/05 14:19:44;;;;;;;17.77;15.60;;;8.10;99.90;;;;;;5086989;28;20450;-74
2023/03/05 14:22:30;;;;;;;19.37;16.60;;;7.90;99.90;;;;;;5087043;28;20447;-75
2023/03/05 14:24:57;;;;;;;19.40;17.60;;;7.80;99.90;;;;;;5087284;28;20454;-76
2023/03/05 14:27:23;;;;;;;20.70;18.53;;;7.50;99.90;;;;;;5086961;28;20499;-75
2023/03/05 14:29:50;;;;;;;19.63;17.63;;;7.50;99.90;;;;;;5087431;28;20469;-75
2023/03/05 14:32:24;;;;;;;22.33;16.83;;;7.50;99.90;;;;;;5086871;28;20565;-73
2023/03/05 14:34:56;;;;;;;22.43;18.47;;;7.70;99.90;;;;;;5086549;28;20450;-74
2023/03/05 14:37:26;;;;;;;19.63;16.97;;;7.70;99.90;;;;;;5086752;28;20454;-75
2023/03/05 14:39:56;;;;;;;19.40;17.37;;;7.60;99.90;;;;;;5086764;28;20442;-75
2023/03/05 14:42:27;;;;;;;21.50;19.50;;;7.50;99.90;;;;;;5086669;28;20507;-75
2023/03/05 14:44:55;;;;;;;22.63;18.87;;;7.40;99.90;;;;;;5086881;28;20446;-74
2023/03/05 14:47:22;;;;;;;21.07;18.87;;;7.40;99.90;;;;;;5089541;28;20941;-74
2023/03/05 14:49:48;;;;;;;22.73;18.17;;;7.40;99.90;;;;;;5090016;28;20957;-74
2023/03/05 14:52:18;;;;;;;22.90;19.50;;;7.30;99.90;;;;;;5090141;28;20486;-74
2023/03/05 14:54:45;;;;;;;20.13;18.13;;;7.20;99.90;;;;;;5089941;27;20545;-74
2023/03/05 14:57:16;;;;;;;21.90;18.43;;;7.10;99.90;;;;;;5090333;28;20471;-74
2023/03/05 14:59:43;;;;;;;20.67;17.67;;;7.10;99.90;;;;;;5090124;28;20446;-74
2023/03/05 15:02:15;;;;;;;20.73;17.47;;;6.90;99.90;;;;;;5090273;28;20453;-74
2023/03/05 15:04:41;;;;;;;20.53;18.40;;;7.00;99.90;;;;;;5090275;28;20806;-74
2023/03/05 15:07:14;;;;;;;19.40;17.33;;;7.00;99.90;;;;;;5089836;28;20462;-74
2023/03/05 15:09:42;;;;;;;20.70;17.80;;;7.00;99.90;;;;;;5089895;28;20488;-74
2023/03/05 15:12:11;;;;;;;20.37;18.37;;;6.90;99.90;;;;;;5089654;28;20508;-74
2023/03/05 15:14:39;;;;;;;19.70;17.67;;;7.00;99.90;;;;;;5089702;28;20515;-74
2023/03/05 15:17:06;;;;;;;20.40;17.27;;;6.90;99.90;;;;;;5089657;28;20450;-74
2023/03/05 15:19:32;;;;;;;24.27;19.50;;;6.90;99.90;;;;;;5089598;28;20450;-73
2023/03/05 15:21:59;;;;;;;22.70;18.10;;;6.90;99.90;;;;;;5089501;28;20449;-74
2023/03/05 15:24:26;;;;;;;27.90;20.40;;;6.80;99.90;;;;;;5089712;28;20523;-74
2023/03/05 15:26:54;;;;;;;28.40;19.70;;;6.80;99.90;;;;;;5089558;28;20454;-73
2023/03/05 15:29:20;;;;;;;20.53;18.40;;;6.60;99.90;;;;;;5089597;28;20562;-75
2023/03/05 15:31:47;;;;;;;26.70;22.00;;;6.60;99.90;;;;;;5089370;28;21107;-73
2023/03/05 15:34:14;;;;;;;24.60;20.13;;;6.60;99.90;;;;;;5089588;28;20458;-74
2023/03/05 15:36:40;;;;;;;29.63;18.90;;;6.60;99.90;;;;;;5089518;28;20446;-73
2023/03/05 15:39:07;;;;;;;25.20;20.60;;;6.50;99.90;;;;;;5089372;28;20953;-74
2023/03/05 15:41:33;;;;;;;23.03;19.90;;;6.40;99.90;;;;;;5089471;28;20879;-75
2023/03/05 15:44:01;;;;;;;23.27;20.33;;;6.40;99.90;;;;;;5089160;28;20988;-74
2023/03/05 15:46:28;;;;;;;23.33;20.83;;;6.40;99.90;;;;;;5089259;28;20459;-74
2023/03/05 15:48:55;;;;;;;20.50;17.93;;;6.40;99.90;;;;;;5089285;28;20869;-74
2023/03/05 15:51:21;;;;;;;25.17;19.77;;;6.40;99.90;;;;;;5089019;28;20889;-74
2023/03/05 15:53:48;;;;;;;21.83;19.53;;;6.40;99.90;;;;;;5088964;28;20477;-74
2023/03/05 15:56:16;;;;;;;21.67;19.17;;;6.40;99.90;;;;;;5089093;28;20827;-74
2023/03/05 15:58:43;;;;;;;22.23;19.93;;;6.40;99.90;;;;;;5089089;28;20454;-74
2023/03/05 16:01:11;;;;;;;22.80;18.00;;;6.40;99.90;;;;;;5089113;28;20861;-74
2023/03/05 16:03:38;;;;;;;21.93;18.30;;;6.50;99.90;;;;;;5088978;28;20458;-76
2023/03/05 16:06:07;;;;;;;24.20;20.17;;;6.40;99.90;;;;;;5088821;28;20471;-73
2023/03/05 16:08:36;;;;;;;22.83;19.43;;;6.40;99.90;;;;;;5088679;28;20568;-75
2023/03/05 16:11:04;;;;;;;26.30;20.57;;;6.40;99.90;;;;;;5088527;27;21020;-75
2023/03/05 16:13:33;;;;;;;23.63;19.30;;;6.40;99.90;;;;;;5088771;28;20446;-74
2023/03/05 16:16:01;;;;;;;23.17;20.57;;;6.30;99.90;;;;;;5088815;28;20447;-75
2023/03/05 16:18:31;;;;;;;23.17;20.67;;;6.30;99.90;;;;;;5088885;28;20456;-75
2023/03/05 16:20:58;;;;;;;20.57;18.47;;;6.20;99.90;;;;;;5088800;28;20450;-74
2023/03/05 16:23:24;;;;;;;22.20;20.00;;;6.20;99.90;;;;;;5088945;28;20473;-74
2023/03/05 16:25:51;;;;;;;19.63;17.60;;;6.20;99.90;;;;;;5088611;28;20442;-74
2023/03/05 16:28:18;;;;;;;19.07;17.07;;;6.10;99.90;;;;;;5088619;27;20842;-74
2023/03/05 16:30:51;;;;;;;21.87;19.77;;;6.10;99.90;;;;;;5088407;28;20451;-76
2023/03/05 16:33:18;;;;;;;19.83;17.60;;;6.10;99.90;;;;;;5088487;28;20864;-74
2023/03/05 16:35:47;;;;;;;18.70;16.70;;;6.20;99.90;;;;;;5088484;28;20797;-74
2023/03/05 16:38:14;;;;;;;18.23;16.00;;;6.10;99.90;;;;;;5088310;28;20933;-74
2023/03/05 16:40:41;;;;;;;22.07;16.87;;;6.00;99.90;;;;;;5088558;28;20507;-74
2023/03/05 16:43:07;;;;;;;18.60;16.80;;;6.00;99.90;;;;;;5088437;28;20443;-75
2023/03/05 16:45:35;;;;;;;22.33;18.40;;;6.10;99.90;;;;;;5088401;28;20457;-73
2023/03/05 16:48:01;;;;;;;18.57;16.87;;;6.00;99.90;;;;;;5088409;27;20826;-74
2023/03/05 16:50:28;;;;;;;18.63;16.73;;;6.00;99.90;;;;;;5088189;28;20477;-74
2023/03/05 16:52:56;;;;;;;18.77;16.87;;;5.90;99.90;;;;;;5088445;28;20501;-74
2023/03/05 16:55:23;;;;;;;19.43;15.93;;;5.90;99.90;;;;;;5088456;28;20849;-75
2023/03/05 16:57:49;;;;;;;17.67;15.10;;;5.90;99.90;;;;;;5088072;28;20923;-75
2023/03/05 17:00:20;;;;;;;20.10;17.23;;;5.90;99.90;;;;;;5088275;28;20824;-75
2023/03/05 17:02:47;;;;;;;15.60;14.00;;;5.90;99.90;;;;;;5088324;28;20455;-76
2023/03/05 17:05:14;;;;;;;15.37;13.80;;;5.90;99.90;;;;;;5088055;28;20455;-74
2023/03/05 17:07:40;;;;;;;15.80;13.97;;;5.90;99.90;;;;;;5088216;28;20459;-75
2023/03/05 17:10:11;;;;;;;16.57;15.17;;;5.90;99.90;;;;;;5087209;28;20478;-73
2023/03/05 17:12:37;;;;;;;17.07;15.40;;;6.00;99.90;;;;;;5087993;28;20486;-75
2023/03/05 17:15:05;;;;;;;19.57;17.70;;;5.90;99.90;;;;;;5087908;28;20477;-74
2023/03/05 17:17:32;;;;;;;17.93;16.10;;;5.90;99.90;;;;;;5087802;28;20655;-74
2023/03/05 17:19:59;;;;;;;16.93;15.23;;;5.90;99.90;;;;;;5087767;28;20450;-74
2023/03/05 17:22:25;;;;;;;20.57;15.90;;;5.90;99.90;;;;;;5087979;28;20443;-75
2023/03/05 17:24:52;;;;;;;24.63;16.57;;;5.90;99.90;;;;;;5087651;28;20446;-75
2023/03/05 17:27:21;;;;;;;17.77;15.83;;;5.80;99.90;;;;;;5087773;28;20506;-76
2023/03/05 17:29:49;;;;;;;18.87;16.97;;;5.80;99.90;;;;;;5087665;28;20451;-74
2023/03/05 17:32:16;;;;;;;19.03;17.13;;;5.80;99.90;;;;;;5088346;27;20856;-75
2023/03/05 17:34:43;;;;;;;16.87;15.17;;;5.80;99.90;;;;;;5087774;28;20827;-74
2023/03/05 17:37:10;;;;;;;15.23;13.70;;;5.80;99.90;;;;;;5087789;27;20458;-74
2023/03/05 17:39:38;;;;;;;19.00;15.77;;;5.80;99.90;;;;;;5087462;28;20951;-74
2023/03/05 17:42:05;;;;;;;18.50;16.20;;;5.80;99.90;;;;;;5087582;28;20462;-75
2023/03/05 17:44:33;;;;;;;19.73;16.33;;;5.80;99.90;;;;;;5087436;28;20454;-75
2023/03/05 17:46:59;;;;;;;16.70;14.90;;;5.80;99.90;;;;;;5087490;28;20518;-75
2023/03/05 17:49:29;;;;;;;17.13;15.53;;;5.80;99.90;;;;;;5087656;28;20545;-73
2023/03/05 17:51:56;;;;;;;17.90;16.17;;;5.80;99.90;;;;;;5087457;28;20485;-75
2023/03/05 17:54:23;;;;;;;17.67;16.13;;;5.80;99.90;;;;;;5087435;28;20863;-74
2023/03/05 17:56:53;;;;;;;17.93;16.10;;;5.70;99.90;;;;;;5087165;28;20451;-74
